sensor_id;sensor_type;location;lat;lon;timestamp;temperature;humidity
21298;DHT22;10808;48.010;11.326;2023-03-01T00:00:22;2.00;99.90
21298;DHT22;10808;48.010;11.326;2023-03-01T00:02:48;2.00;99.90
21298;DHT22;10808;48.010;11.326;2023-03-01T00:05:14;1.90;99.90
21298;DHT22;10808;48.010;11.326;2023-03-01T00:07:40;2.00;99.90
21298;DHT22;10808;48.010;11.326;2023-03-01T00:10:07;2.00;99.90
21298;DHT22;10808;48.010;11.326;2023-03-01T00:12:33;2.00;99.90
21298;DHT22;10808;48.010;11.326;2023-03-01T00:14:59;2.00;99.90
21298;DHT22;10808;48.010;11.326;2023-03-01T00:17:25;2.00;99.90
21298;DHT22;10808;48.010;11.326;2023-03-01T00:19:51;2.00;99.90
21298;DHT22;10808;48.010;11.326;2023-03-01T00:22:17;2.10;99.90
21298;DHT22;10808;48.010;11.326;2023-03-01T00:24:43;2.10;99.90
21298;DHT22;10808;48.010;11.326;2023-03-01T00:27:09;2.00;99.90
21298;DHT22;10808;48.010;11.326;2023-03-01T00:29:35;2.10;99.90
21298;DHT22;10808;48.010;11.326;2023-03-01T00:32:01;2.10;99.90
21298;DHT22;10808;48.010;11.326;2023-03-01T00:34:27;2.00;99.90
21298;DHT22;10808;48.010;11.326;2023-03-01T00:36:53;2.00;99.90
21298;DHT22;10808;48.010;11.326;2023-03-01T00:39:19;2.00;99.90
21298;DHT22;10808;48.010;11.326;2023-03-01T00:41:45;2.00;99.90
21298;DHT22;10808;48.010;11.326;2023-03-01T00:44:11;2.00;99.90
21298;DHT22;10808;48.010;11.326;2023-03-01T00:46:38;2.00;99.90
21298;DHT22;10808;48.010;11.326;2023-03-01T00:49:04;2.00;99.90
21298;DHT22;10808;48.010;11.326;2023-03-01T00:51:30;2.00;99.90
21298;DHT22;10808;48.010;11.326;2023-03-01T00:53:59;2.00;99.90
21298;DHT22;10808;48.010;11.326;2023-03-01T00:56:26;2.10;99.90
21298;DHT22;10808;48.010;11.326;2023-03-01T00:58:52;2.00;99.90
21298;DHT22;10808;48.010;11.326;2023-03-01T01:01:24;2.00;99.90
21298;DHT22;10808;48.010;11.326;2023-03-01T01:04:19;2.00;99.90
21298;DHT22;10808;48.010;11.326;2023-03-01T01:06:46;2.00;99.90
21298;DHT22;10808;48.010;11.326;2023-03-01T01:09:14;2.00;99.90
21298;DHT22;10808;48.010;11.326;2023-03-01T01:11:48;1.90;99.90
21298;DHT22;10808;48.010;11.326;2023-03-01T01:14:15;1.90;99.90
21298;DHT22;10808;48.010;11.326;2023-03-01T01:16:41;1.90;99.90
21298;DHT22;10808;48.010;11.326;2023-03-01T01:19:08;1.90;99.90
21298;DHT22;10808;48.010;11.326;2023-03-01T01:21:34;2.00;99.90
21298;DHT22;10808;48.010;11.326;2023-03-01T01:24:03;1.90;99.90
21298;DHT22;10808;48.010;11.326;2023-03-01T01:26:31;1.90;99.90
21298;DHT22;10808;48.010;11.326;2023-03-01T01:28:59;1.90;99.90
21298;DHT22;10808;48.010;11.326;2023-03-01T01:31:26;2.00;99.90
21298;DHT22;10808;48.010;11.326;2023-03-01T01:33:53;2.00;99.90
21298;DHT22;10808;48.010;11.326;2023-03-01T01:36:20;2.00;99.90
21298;DHT22;10808;48.010;11.326;2023-03-01T01:38:46;1.90;99.90
21298;DHT22;10808;48.010;11.326;2023-03-01T01:41:14;1.90;99.90
21298;DHT22;10808;48.010;11.326;2023-03-01T01:43:43;1.90;99.90
21298;DHT22;10808;48.010;11.326;2023-03-01T01:46:19;2.00;99.90
21298;DHT22;10808;48.010;11.326;2023-03-01T01:48:54;1.90;99.90
21298;DHT22;10808;48.010;11.326;2023-03-01T01:51:25;1.90;99.90
21298;DHT22;10808;48.010;11.326;2023-03-01T01:53:58;1.90;99.90
21298;DHT22;10808;48.010;11.326;2023-03-01T01:56:26;1.90;99.90
21298;DHT22;10808;48.010;11.326;2023-03-01T01:58:55;1.80;99.90
21298;DHT22;10808;48.010;11.326;2023-03-01T02:01:21;1.80;99.90
21298;DHT22;10808;48.010;11.326;2023-03-01T02:03:48;1.80;99.90
21298;DHT22;10808;48.010;11.326;2023-03-01T02:06:31;1.80;99.90
21298;DHT22;10808;48.010;11.326;2023-03-01T02:09:03;1.80;99.90
21298;DHT22;10808;48.010;11.326;2023-03-01T02:11:32;1.80;99.90
21298;DHT22;10808;48.010;11.326;2023-03-01T02:13:59;1.80;99.90
21298;DHT22;10808;48.010;11.326;2023-03-01T02:16:26;1.80;99.90
21298;DHT22;10808;48.010;11.326;2023-03-01T02:18:52;1.80;99.90
21298;DHT22;10808;48.010;11.326;2023-03-01T02:21:26;1.80;99.90
21298;DHT22;10808;48.010;11.326;2023-03-01T02:23:54;1.80;99.90
21298;DHT22;10808;48.010;11.326;2023-03-01T02:26:40;1.80;99.90
21298;DHT22;10808;48.010;11.326;2023-03-01T02:29:07;1.70;99.90
21298;DHT22;10808;48.010;11.326;2023-03-01T02:31:33;1.80;99.90
21298;DHT22;10808;48.010;11.326;2023-03-01T02:34:17;1.80;99.90
21298;DHT22;10808;48.010;11.326;2023-03-01T02:36:47;1.80;99.90
21298;DHT22;10808;48.010;11.326;2023-03-01T02:39:18;1.80;99.90
21298;DHT22;10808;48.010;11.326;2023-03-01T02:41:49;1.80;99.90
21298;DHT22;10808;48.010;11.326;2023-03-01T02:44:16;1.80;99.90
21298;DHT22;10808;48.010;11.326;2023-03-01T02:46:51;1.90;99.90
21298;DHT22;10808;48.010;11.326;2023-03-01T02:49:22;1.80;99.90
21298;DHT22;10808;48.010;11.326;2023-03-01T02:55:09;1.80;99.90
21298;DHT22;10808;48.010;11.326;2023-03-01T02:57:39;1.80;99.90
21298;DHT22;10808;48.010;11.326;2023-03-01T03:00:11;1.80;99.90
21298;DHT22;10808;48.010;11.326;2023-03-01T03:02:49;1.80;99.90
21298;DHT22;10808;48.010;11.326;2023-03-01T03:05:19;1.70;99.90
21298;DHT22;10808;48.010;11.326;2023-03-01T03:07:46;1.70;99.90
21298;DHT22;10808;48.010;11.326;2023-03-01T03:10:20;1.70;99.90
21298;DHT22;10808;48.010;11.326;2023-03-01T03:12:51;1.70;99.90
21298;DHT22;10808;48.010;11.326;2023-03-01T03:15:17;1.80;99.90
21298;DHT22;10808;48.010;11.326;2023-03-01T03:17:43;1.80;99.90
21298;DHT22;10808;48.010;11.326;2023-03-01T03:20:11;1.70;99.90
21298;DHT22;10808;48.010;11.326;2023-03-01T03:22:48;1.70;99.90
21298;DHT22;10808;48.010;11.326;2023-03-01T03:25:16;1.80;99.90
21298;DHT22;10808;48.010;11.326;2023-03-01T03:27:44;1.80;99.90
21298;DHT22;10808;48.010;11.326;2023-03-01T03:30:16;1.70;99.90
21298;DHT22;10808;48.010;11.326;2023-03-01T03:32:44;1.70;99.90
21298;DHT22;10808;48.010;11.326;2023-03-01T03:35:27;1.70;99.90
21298;DHT22;10808;48.010;11.326;2023-03-01T03:37:56;1.70;99.90
21298;DHT22;10808;48.010;11.326;2023-03-01T03:40:34;1.80;99.90
21298;DHT22;10808;48.010;11.326;2023-03-01T03:43:02;1.80;99.90
21298;DHT22;10808;48.010;11.326;2023-03-01T03:45:28;1.70;99.90
21298;DHT22;10808;48.010;11.326;2023-03-01T03:47:54;1.80;99.90
21298;DHT22;10808;48.010;11.326;2023-03-01T03:50:20;1.80;99.90
21298;DHT22;10808;48.010;11.326;2023-03-01T03:52:46;1.80;99.90
21298;DHT22;10808;48.010;11.326;2023-03-01T03:55:12;1.70;99.90
21298;DHT22;10808;48.010;11.326;2023-03-01T03:57:39;1.70;99.90
21298;DHT22;10808;48.010;11.326;2023-03-01T04:00:08;1.70;99.90
21298;DHT22;10808;48.010;11.326;2023-03-01T04:02:39;1.70;99.90
21298;DHT22;10808;48.010;11.326;2023-03-01T04:05:07;1.70;99.90
21298;DHT22;10808;48.010;11.326;2023-03-01T04:07:34;1.70;99.90
21298;DHT22;10808;48.010;11.326;2023-03-01T04:10:03;1.60;99.90
21298;DHT22;10808;48.010;11.326;2023-03-01T04:12:29;1.60;99.90
21298;DHT22;10808;48.010;11.326;2023-03-01T04:14:55;1.60;99.90
21298;DHT22;10808;48.010;11.326;2023-03-01T04:17:22;1.70;99.90
21298;DHT22;10808;48.010;11.326;2023-03-01T04:19:48;1.60;99.90
21298;DHT22;10808;48.010;11.326;2023-03-01T04:22:14;1.70;99.90
21298;DHT22;10808;48.010;11.326;2023-03-01T04:24:43;1.70;99.90
21298;DHT22;10808;48.010;11.326;2023-03-01T04:27:09;1.70;99.90
21298;DHT22;10808;48.010;11.326;2023-03-01T04:29:36;1.70;99.90
21298;DHT22;10808;48.010;11.326;2023-03-01T04:32:02;1.70;99.90
21298;DHT22;10808;48.010;11.326;2023-03-01T04:34:34;1.70;99.90
21298;DHT22;10808;48.010;11.326;2023-03-01T04:37:00;1.70;99.90
21298;DHT22;10808;48.010;11.326;2023-03-01T04:39:26;1.60;99.90
21298;DHT22;10808;48.010;11.326;2023-03-01T04:41:52;1.60;99.90
21298;DHT22;10808;48.010;11.326;2023-03-01T04:44:18;1.60;99.90
21298;DHT22;10808;48.010;11.326;2023-03-01T04:46:45;1.60;99.90
21298;DHT22;10808;48.010;11.326;2023-03-01T04:49:11;1.70;99.90
21298;DHT22;10808;48.010;11.326;2023-03-01T04:51:37;1.60;99.90
21298;DHT22;10808;48.010;11.326;2023-03-01T04:54:04;1.60;99.90
21298;DHT22;10808;48.010;11.326;2023-03-01T04:56:34;1.60;99.90
21298;DHT22;10808;48.010;11.326;2023-03-01T04:59:00;1.60;99.90
21298;DHT22;10808;48.010;11.326;2023-03-01T05:01:28;1.60;99.90
21298;DHT22;10808;48.010;11.326;2023-03-01T05:03:54;1.60;99.90
21298;DHT22;10808;48.010;11.326;2023-03-01T05:06:20;1.60;99.90
21298;DHT22;10808;48.010;11.326;2023-03-01T05:08:46;1.50;99.90
21298;DHT22;10808;48.010;11.326;2023-03-01T05:11:12;1.50;99.90
21298;DHT22;10808;48.010;11.326;2023-03-01T05:13:39;1.50;99.90
21298;DHT22;10808;48.010;11.326;2023-03-01T05:16:07;1.50;99.90
21298;DHT22;10808;48.010;11.326;2023-03-01T05:18:37;1.60;99.90
21298;DHT22;10808;48.010;11.326;2023-03-01T05:21:11;1.60;99.90
21298;DHT22;10808;48.010;11.326;2023-03-01T05:23:38;1.60;99.90
21298;DHT22;10808;48.010;11.326;2023-03-01T05:26:06;1.60;99.90
21298;DHT22;10808;48.010;11.326;2023-03-01T05:28:32;1.60;99.90
21298;DHT22;10808;48.010;11.326;2023-03-01T05:30:58;1.60;99.90
21298;DHT22;10808;48.010;11.326;2023-03-01T05:33:25;1.60;99.90
21298;DHT22;10808;48.010;11.326;2023-03-01T05:35:51;1.60;99.90
21298;DHT22;10808;48.010;11.326;2023-03-01T05:38:20;1.60;99.90
21298;DHT22;10808;48.010;11.326;2023-03-01T05:40:48;1.50;99.90
21298;DHT22;10808;48.010;11.326;2023-03-01T05:43:15;1.50;99.90
21298;DHT22;10808;48.010;11.326;2023-03-01T05:45:42;1.40;99.90
21298;DHT22;10808;48.010;11.326;2023-03-01T05:48:09;1.40;99.90
21298;DHT22;10808;48.010;11.326;2023-03-01T05:50:44;1.50;99.90
21298;DHT22;10808;48.010;11.326;2023-03-01T05:53:12;1.50;99.90
21298;DHT22;10808;48.010;11.326;2023-03-01T05:55:39;1.50;99.90
21298;DHT22;10808;48.010;11.326;2023-03-01T05:58:07;1.50;99.90
21298;DHT22;10808;48.010;11.326;2023-03-01T06:00:35;1.40;99.90
21298;DHT22;10808;48.010;11.326;2023-03-01T06:03:01;1.40;99.90
21298;DHT22;10808;48.010;11.326;2023-03-01T06:05:28;1.40;99.90
21298;DHT22;10808;48.010;11.326;2023-03-01T06:07:54;1.40;99.90
21298;DHT22;10808;48.010;11.326;2023-03-01T06:10:22;1.40;99.90
21298;DHT22;10808;48.010;11.326;2023-03-01T06:12:48;1.40;99.90
21298;DHT22;10808;48.010;11.326;2023-03-01T06:15:15;1.40;99.90
21298;DHT22;10808;48.010;11.326;2023-03-01T06:17:44;1.30;99.90
21298;DHT22;10808;48.010;11.326;2023-03-01T06:22:41;1.40;99.90
21298;DHT22;10808;48.010;11.326;2023-03-01T06:25:08;1.30;99.90
21298;DHT22;10808;48.010;11.326;2023-03-01T06:27:35;1.40;99.90
21298;DHT22;10808;48.010;11.326;2023-03-01T06:30:01;1.40;99.90
21298;DHT22;10808;48.010;11.326;2023-03-01T06:32:27;1.40;99.90
21298;DHT22;10808;48.010;11.326;2023-03-01T06:34:53;1.40;99.90
21298;DHT22;10808;48.010;11.326;2023-03-01T06:37:19;1.40;99.90
21298;DHT22;10808;48.010;11.326;2023-03-01T06:39:45;1.40;99.90
21298;DHT22;10808;48.010;11.326;2023-03-01T06:42:12;1.40;99.90
21298;DHT22;10808;48.010;11.326;2023-03-01T06:44:38;1.40;99.90
21298;DHT22;10808;48.010;11.326;2023-03-01T06:47:04;1.40;99.90
21298;DHT22;10808;48.010;11.326;2023-03-01T06:49:30;1.30;99.90
21298;DHT22;10808;48.010;11.326;2023-03-01T06:51:57;1.30;99.90
21298;DHT22;10808;48.010;11.326;2023-03-01T06:54:23;1.30;99.90
21298;DHT22;10808;48.010;11.326;2023-03-01T06:56:49;1.30;99.90
21298;DHT22;10808;48.010;11.326;2023-03-01T06:59:17;1.20;99.90
21298;DHT22;10808;48.010;11.326;2023-03-01T07:01:43;1.30;99.90
21298;DHT22;10808;48.010;11.326;2023-03-01T07:04:11;1.30;99.90
21298;DHT22;10808;48.010;11.326;2023-03-01T07:06:38;1.30;99.90
21298;DHT22;10808;48.010;11.326;2023-03-01T07:09:04;1.30;99.90
21298;DHT22;10808;48.010;11.326;2023-03-01T07:11:30;1.30;99.90
21298;DHT22;10808;48.010;11.326;2023-03-01T07:13:56;1.20;99.90
21298;DHT22;10808;48.010;11.326;2023-03-01T07:16:22;1.20;99.90
21298;DHT22;10808;48.010;11.326;2023-03-01T07:18:48;1.20;99.90
21298;DHT22;10808;48.010;11.326;2023-03-01T07:21:14;1.10;99.90
21298;DHT22;10808;48.010;11.326;2023-03-01T07:23:42;1.10;99.90
21298;DHT22;10808;48.010;11.326;2023-03-01T07:26:09;1.10;99.90
21298;DHT22;10808;48.010;11.326;2023-03-01T07:28:35;1.10;99.90
21298;DHT22;10808;48.010;11.326;2023-03-01T07:31:05;1.10;99.90
21298;DHT22;10808;48.010;11.326;2023-03-01T07:33:31;1.10;99.90
21298;DHT22;10808;48.010;11.326;2023-03-01T07:36:01;1.10;99.90
21298;DHT22;10808;48.010;11.326;2023-03-01T07:38:28;1.20;99.90
21298;DHT22;10808;48.010;11.326;2023-03-01T07:40:58;1.10;99.90
21298;DHT22;10808;48.010;11.326;2023-03-01T07:43:25;1.20;99.90
21298;DHT22;10808;48.010;11.326;2023-03-01T07:45:51;1.20;99.90
21298;DHT22;10808;48.010;11.326;2023-03-01T07:48:17;1.30;99.90
21298;DHT22;10808;48.010;11.326;2023-03-01T07:50:43;1.30;99.90
21298;DHT22;10808;48.010;11.326;2023-03-01T07:53:10;1.40;99.90
21298;DHT22;10808;48.010;11.326;2023-03-01T07:55:36;1.50;99.90
21298;DHT22;10808;48.010;11.326;2023-03-01T07:58:03;1.50;99.90
21298;DHT22;10808;48.010;11.326;2023-03-01T08:00:29;1.50;99.90
21298;DHT22;10808;48.010;11.326;2023-03-01T08:02:59;1.50;99.90
21298;DHT22;10808;48.010;11.326;2023-03-01T08:05:27;1.50;99.90
21298;DHT22;10808;48.010;11.326;2023-03-01T08:07:53;1.40;99.90
21298;DHT22;10808;48.010;11.326;2023-03-01T08:10:20;1.40;99.90
21298;DHT22;10808;48.010;11.326;2023-03-01T08:12:46;1.40;99.90
21298;DHT22;10808;48.010;11.326;2023-03-01T08:15:12;1.40;99.90
21298;DHT22;10808;48.010;11.326;2023-03-01T08:17:38;1.40;99.90
21298;DHT22;10808;48.010;11.326;2023-03-01T08:20:04;1.50;99.90
21298;DHT22;10808;48.010;11.326;2023-03-01T08:22:32;1.50;99.90
21298;DHT22;10808;48.010;11.326;2023-03-01T08:24:58;1.50;99.90
21298;DHT22;10808;48.010;11.326;2023-03-01T08:27:24;1.60;99.90
21298;DHT22;10808;48.010;11.326;2023-03-01T08:29:50;1.60;99.90
21298;DHT22;10808;48.010;11.326;2023-03-01T08:32:16;1.60;99.90
21298;DHT22;10808;48.010;11.326;2023-03-01T08:34:46;1.60;99.90
21298;DHT22;10808;48.010;11.326;2023-03-01T08:37:12;1.60;99.90
21298;DHT22;10808;48.010;11.326;2023-03-01T08:39:38;1.60;99.90
21298;DHT22;10808;48.010;11.326;2023-03-01T08:42:04;1.50;99.90
21298;DHT22;10808;48.010;11.326;2023-03-01T08:44:30;1.60;99.90
21298;DHT22;10808;48.010;11.326;2023-03-01T08:46:56;1.70;99.90
21298;DHT22;10808;48.010;11.326;2023-03-01T08:49:23;1.70;99.90
21298;DHT22;10808;48.010;11.326;2023-03-01T08:51:49;1.70;99.90
21298;DHT22;10808;48.010;11.326;2023-03-01T08:54:17;1.80;99.90
21298;DHT22;10808;48.010;11.326;2023-03-01T08:56:44;1.80;99.90
21298;DHT22;10808;48.010;11.326;2023-03-01T08:59:11;1.90;99.90
21298;DHT22;10808;48.010;11.326;2023-03-01T09:01:37;1.90;99.90
21298;DHT22;10808;48.010;11.326;2023-03-01T09:04:04;1.90;99.90
21298;DHT22;10808;48.010;11.326;2023-03-01T09:06:31;1.90;99.90
21298;DHT22;10808;48.010;11.326;2023-03-01T09:08:58;1.90;99.90
21298;DHT22;10808;48.010;11.326;2023-03-01T09:11:24;2.00;99.90
21298;DHT22;10808;48.010;11.326;2023-03-01T09:13:50;2.00;99.90
21298;DHT22;10808;48.010;11.326;2023-03-01T09:16:18;2.00;99.90
21298;DHT22;10808;48.010;11.326;2023-03-01T09:18:48;2.00;99.90
21298;DHT22;10808;48.010;11.326;2023-03-01T09:21:16;2.00;99.90
21298;DHT22;10808;48.010;11.326;2023-03-01T09:23:44;2.10;99.90
21298;DHT22;10808;48.010;11.326;2023-03-01T09:26:13;2.10;99.90
21298;DHT22;10808;48.010;11.326;2023-03-01T09:28:40;2.10;99.90
21298;DHT22;10808;48.010;11.326;2023-03-01T09:31:10;2.10;99.90
21298;DHT22;10808;48.010;11.326;2023-03-01T09:33:39;2.10;99.90
21298;DHT22;10808;48.010;11.326;2023-03-01T09:36:18;2.10;99.90
21298;DHT22;10808;48.010;11.326;2023-03-01T09:38:44;2.10;99.90
21298;DHT22;10808;48.010;11.326;2023-03-01T09:44:16;2.30;99.90
21298;DHT22;10808;48.010;11.326;2023-03-01T09:46:45;2.40;99.90
21298;DHT22;10808;48.010;11.326;2023-03-01T09:49:18;2.50;99.90
21298;DHT22;10808;48.010;11.326;2023-03-01T09:51:58;2.50;99.90
21298;DHT22;10808;48.010;11.326;2023-03-01T09:54:25;2.50;99.90
21298;DHT22;10808;48.010;11.326;2023-03-01T09:57:47;2.60;99.90
21298;DHT22;10808;48.010;11.326;2023-03-01T09:59:58;2.50;99.90
21298;DHT22;10808;48.010;11.326;2023-03-01T10:02:45;2.60;99.90
21298;DHT22;10808;48.010;11.326;2023-03-01T10:10:44;2.70;99.90
21298;DHT22;10808;48.010;11.326;2023-03-01T10:15:55;2.70;99.90
21298;DHT22;10808;48.010;11.326;2023-03-01T10:18:27;2.70;99.90
21298;DHT22;10808;48.010;11.326;2023-03-01T10:21:14;2.80;99.90
21298;DHT22;10808;48.010;11.326;2023-03-01T10:23:41;2.70;99.90
21298;DHT22;10808;48.010;11.326;2023-03-01T10:31:38;2.70;99.90
21298;DHT22;10808;48.010;11.326;2023-03-01T10:34:20;2.80;99.90
21298;DHT22;10808;48.010;11.326;2023-03-01T10:36:50;2.90;99.90
21298;DHT22;10808;48.010;11.326;2023-03-01T10:39:22;2.90;99.90
21298;DHT22;10808;48.010;11.326;2023-03-01T10:41:54;2.90;99.90
21298;DHT22;10808;48.010;11.326;2023-03-01T10:44:45;2.90;99.90
21298;DHT22;10808;48.010;11.326;2023-03-01T10:47:21;3.00;99.90
21298;DHT22;10808;48.010;11.326;2023-03-01T10:50:01;2.90;99.90
21298;DHT22;10808;48.010;11.326;2023-03-01T10:52:34;3.00;99.90
21298;DHT22;10808;48.010;11.326;2023-03-01T10:57:40;3.10;99.90
21298;DHT22;10808;48.010;11.326;2023-03-01T11:05:25;3.20;99.90
21298;DHT22;10808;48.010;11.326;2023-03-01T11:10:22;3.10;99.90
21298;DHT22;10808;48.010;11.326;2023-03-01T11:12:50;3.20;99.90
21298;DHT22;10808;48.010;11.326;2023-03-01T11:15:25;3.20;99.90
21298;DHT22;10808;48.010;11.326;2023-03-01T11:17:52;3.20;99.90
21298;DHT22;10808;48.010;11.326;2023-03-01T11:20:31;3.30;99.90
21298;DHT22;10808;48.010;11.326;2023-03-01T11:23:02;3.40;99.90
21298;DHT22;10808;48.010;11.326;2023-03-01T11:25:43;3.40;99.90
21298;DHT22;10808;48.010;11.326;2023-03-01T11:28:15;3.40;99.90
21298;DHT22;10808;48.010;11.326;2023-03-01T11:38:53;3.60;99.90
21298;DHT22;10808;48.010;11.326;2023-03-01T11:41:28;3.60;99.90
21298;DHT22;10808;48.010;11.326;2023-03-01T11:44:18;3.80;99.90
21298;DHT22;10808;48.010;11.326;2023-03-01T12:01:16;4.40;99.90
21298;DHT22;10808;48.010;11.326;2023-03-01T12:04:08;4.50;99.90
21298;DHT22;10808;48.010;11.326;2023-03-01T12:06:49;4.60;99.90
21298;DHT22;10808;48.010;11.326;2023-03-01T12:09:31;4.50;99.90
21298;DHT22;10808;48.010;11.326;2023-03-01T12:20:18;4.20;99.90
21298;DHT22;10808;48.010;11.326;2023-03-01T12:29:16;4.30;99.90
21298;DHT22;10808;48.010;11.326;2023-03-01T12:32:06;4.20;99.90
21298;DHT22;10808;48.010;11.326;2023-03-01T12:40:33;4.10;99.90
21298;DHT22;10808;48.010;11.326;2023-03-01T12:45:54;4.10;99.90
21298;DHT22;10808;48.010;11.326;2023-03-01T12:51:21;4.00;99.90
21298;DHT22;10808;48.010;11.326;2023-03-01T12:53:51;4.00;99.90
21298;DHT22;10808;48.010;11.326;2023-03-01T12:56:22;4.00;99.90
21298;DHT22;10808;48.010;11.326;2023-03-01T12:58:59;4.10;99.90
21298;DHT22;10808;48.010;11.326;2023-03-01T13:01:51;4.20;99.90
21298;DHT22;10808;48.010;11.326;2023-03-01T13:07:51;4.30;99.90
21298;DHT22;10808;48.010;11.326;2023-03-01T13:13:22;4.50;99.90
21298;DHT22;10808;48.010;11.326;2023-03-01T13:15:49;4.60;99.90
21298;DHT22;10808;48.010;11.326;2023-03-01T13:20:50;4.80;99.90
21298;DHT22;10808;48.010;11.326;2023-03-01T13:30:58;5.30;99.90
21298;DHT22;10808;48.010;11.326;2023-03-01T13:35:58;5.70;99.90
21298;DHT22;10808;48.010;11.326;2023-03-01T13:41:17;6.10;99.90
21298;DHT22;10808;48.010;11.326;2023-03-01T13:43:46;6.30;99.90
21298;DHT22;10808;48.010;11.326;2023-03-01T13:46:21;6.40;99.90
21298;DHT22;10808;48.010;11.326;2023-03-01T13:48:51;6.60;99.90
21298;DHT22;10808;48.010;11.326;2023-03-01T13:51:25;6.80;99.60
21298;DHT22;10808;48.010;11.326;2023-03-01T13:53:54;7.00;99.50
21298;DHT22;10808;48.010;11.326;2023-03-01T13:56:27;7.20;99.20
21298;DHT22;10808;48.010;11.326;2023-03-01T13:59:03;7.40;98.80
21298;DHT22;10808;48.010;11.326;2023-03-01T14:01:33;7.70;98.80
21298;DHT22;10808;48.010;11.326;2023-03-01T14:04:00;7.80;98.70
21298;DHT22;10808;48.010;11.326;2023-03-01T14:06:29;8.00;98.30
21298;DHT22;10808;48.010;11.326;2023-03-01T14:09:16;8.20;98.50
21298;DHT22;10808;48.010;11.326;2023-03-01T14:12:26;8.40;98.00
21298;DHT22;10808;48.010;11.326;2023-03-01T14:15:22;8.60;97.50
21298;DHT22;10808;48.010;11.326;2023-03-01T14:18:10;8.80;97.40
21298;DHT22;10808;48.010;11.326;2023-03-01T14:20:41;9.00;97.50
21298;DHT22;10808;48.010;11.326;2023-03-01T14:23:17;9.20;96.90
21298;DHT22;10808;48.010;11.326;2023-03-01T14:25:53;9.30;96.90
21298;DHT22;10808;48.010;11.326;2023-03-01T14:28:30;9.60;96.60
21298;DHT22;10808;48.010;11.326;2023-03-01T14:31:00;9.80;96.60
21298;DHT22;10808;48.010;11.326;2023-03-01T14:33:28;9.90;95.90
21298;DHT22;10808;48.010;11.326;2023-03-01T14:36:05;9.90;95.50
21298;DHT22;10808;48.010;11.326;2023-03-01T14:38:44;9.90;95.50
21298;DHT22;10808;48.010;11.326;2023-03-01T14:41:26;9.90;96.10
21298;DHT22;10808;48.010;11.326;2023-03-01T14:43:59;9.90;95.60
21298;DHT22;10808;48.010;11.326;2023-03-01T14:46:28;10.00;95.80
21298;DHT22;10808;48.010;11.326;2023-03-01T14:49:15;10.20;95.60
21298;DHT22;10808;48.010;11.326;2023-03-01T14:51:47;10.20;95.10
21298;DHT22;10808;48.010;11.326;2023-03-01T14:56:47;10.20;94.90
21298;DHT22;10808;48.010;11.326;2023-03-01T14:59:13;10.30;95.50
21298;DHT22;10808;48.010;11.326;2023-03-01T15:01:41;10.30;94.70
21298;DHT22;10808;48.010;11.326;2023-03-01T15:04:12;10.30;94.70
21298;DHT22;10808;48.010;11.326;2023-03-01T15:06:39;10.30;95.00
21298;DHT22;10808;48.010;11.326;2023-03-01T15:09:06;10.20;94.80
21298;DHT22;10808;48.010;11.326;2023-03-01T15:11:34;10.10;94.50
21298;DHT22;10808;48.010;11.326;2023-03-01T15:14:36;9.80;95.50
21298;DHT22;10808;48.010;11.326;2023-03-01T15:17:04;9.60;96.00
21298;DHT22;10808;48.010;11.326;2023-03-01T15:19:31;9.60;95.90
21298;DHT22;10808;48.010;11.326;2023-03-01T15:21:57;9.40;95.90
21298;DHT22;10808;48.010;11.326;2023-03-01T15:24:25;9.30;96.10
21298;DHT22;10808;48.010;11.326;2023-03-01T15:26:58;9.20;96.40
21298;DHT22;10808;48.010;11.326;2023-03-01T15:29:29;9.00;96.60
21298;DHT22;10808;48.010;11.326;2023-03-01T15:32:20;8.90;96.80
21298;DHT22;10808;48.010;11.326;2023-03-01T15:34:48;8.80;96.90
21298;DHT22;10808;48.010;11.326;2023-03-01T15:42:44;8.30;97.40
21298;DHT22;10808;48.010;11.326;2023-03-01T15:47:47;8.00;97.70
21298;DHT22;10808;48.010;11.326;2023-03-01T15:50:29;7.80;97.90
21298;DHT22;10808;48.010;11.326;2023-03-01T15:52:59;7.70;98.00
21298;DHT22;10808;48.010;11.326;2023-03-01T15:55:29;7.50;98.60
21298;DHT22;10808;48.010;11.326;2023-03-01T15:58:10;7.40;98.70
21298;DHT22;10808;48.010;11.326;2023-03-01T16:00:38;7.40;98.90
21298;DHT22;10808;48.010;11.326;2023-03-01T16:03:06;7.30;98.60
21298;DHT22;10808;48.010;11.326;2023-03-01T16:05:35;7.30;99.00
21298;DHT22;10808;48.010;11.326;2023-03-01T16:08:02;7.20;99.10
21298;DHT22;10808;48.010;11.326;2023-03-01T16:10:30;7.30;99.10
21298;DHT22;10808;48.010;11.326;2023-03-01T16:12:57;7.10;99.30
21298;DHT22;10808;48.010;11.326;2023-03-01T16:15:25;7.10;99.60
21298;DHT22;10808;48.010;11.326;2023-03-01T16:17:53;7.00;99.60
21298;DHT22;10808;48.010;11.326;2023-03-01T16:20:19;6.90;99.80
21298;DHT22;10808;48.010;11.326;2023-03-01T16:22:51;6.80;99.90
21298;DHT22;10808;48.010;11.326;2023-03-01T16:25:20;6.70;99.90
21298;DHT22;10808;48.010;11.326;2023-03-01T16:27:50;6.60;99.90
21298;DHT22;10808;48.010;11.326;2023-03-01T16:30:19;6.50;99.90
21298;DHT22;10808;48.010;11.326;2023-03-01T16:32:46;6.30;99.90
21298;DHT22;10808;48.010;11.326;2023-03-01T16:35:15;6.20;99.90
21298;DHT22;10808;48.010;11.326;2023-03-01T16:37:50;6.20;99.90
21298;DHT22;10808;48.010;11.326;2023-03-01T16:40:40;6.00;99.90
21298;DHT22;10808;48.010;11.326;2023-03-01T16:43:14;6.00;99.90
21298;DHT22;10808;48.010;11.326;2023-03-01T16:45:40;5.80;99.90
21298;DHT22;10808;48.010;11.326;2023-03-01T16:48:10;5.80;99.90
21298;DHT22;10808;48.010;11.326;2023-03-01T16:50:36;5.70;99.90
21298;DHT22;10808;48.010;11.326;2023-03-01T16:53:03;5.60;99.90
21298;DHT22;10808;48.010;11.326;2023-03-01T16:55:35;5.50;99.90
21298;DHT22;10808;48.010;11.326;2023-03-01T16:58:01;5.40;99.90
21298;DHT22;10808;48.010;11.326;2023-03-01T17:00:28;5.40;99.90
21298;DHT22;10808;48.010;11.326;2023-03-01T17:02:54;5.30;99.90
21298;DHT22;10808;48.010;11.326;2023-03-01T17:05:20;5.20;99.90
21298;DHT22;10808;48.010;11.326;2023-03-01T17:07:51;5.10;99.90
21298;DHT22;10808;48.010;11.326;2023-03-01T17:10:17;5.10;99.90
21298;DHT22;10808;48.010;11.326;2023-03-01T17:12:43;5.00;99.90
21298;DHT22;10808;48.010;11.326;2023-03-01T17:15:09;4.90;99.90
21298;DHT22;10808;48.010;11.326;2023-03-01T17:17:37;4.80;99.90
21298;DHT22;10808;48.010;11.326;2023-03-01T17:20:17;4.80;99.90
21298;DHT22;10808;48.010;11.326;2023-03-01T17:22:49;4.80;99.90
21298;DHT22;10808;48.010;11.326;2023-03-01T17:25:17;4.70;99.90
21298;DHT22;10808;48.010;11.326;2023-03-01T17:27:43;4.60;99.90
21298;DHT22;10808;48.010;11.326;2023-03-01T17:30:11;4.60;99.90
21298;DHT22;10808;48.010;11.326;2023-03-01T17:32:45;4.50;99.90
21298;DHT22;10808;48.010;11.326;2023-03-01T17:35:16;4.50;99.90
21298;DHT22;10808;48.010;11.326;2023-03-01T17:37:42;4.40;99.90
21298;DHT22;10808;48.010;11.326;2023-03-01T17:40:11;4.40;99.90